sensor_id;sensor_type;location;lat;lon;timestamp;P1;durP1;ratioP1;P2;durP2;ratioP2
33022;SDS011;19390;51.460;5.710;2022-08-11T00:00:07;8.52;;;3.22;;
33022;SDS011;19390;51.460;5.710;2022-08-11T00:02:40;11.55;;;3.28;;
33022;SDS011;19390;51.460;5.710;2022-08-11T00:05:14;12.05;;;3.20;;
33022;SDS011;19390;51.460;5.710;2022-08-11T00:07:50;11.63;;;2.70;;
33022;SDS011;19390;51.460;5.710;2022-08-11T00:10:19;9.65;;;3.83;;
33022;SDS011;19390;51.460;5.710;2022-08-11T00:12:53;22.40;;;4.32;;
33022;SDS011;19390;51.460;5.710;2022-08-11T00:15:25;18.83;;;4.15;;
33022;SDS011;19390;51.460;5.710;2022-08-11T00:17:56;16.48;;;3.80;;
33022;SDS011;19390;51.460;5.710;2022-08-11T00:20:31;15.30;;;3.53;;
33022;SDS011;19390;51.460;5.710;2022-08-11T00:23:08;14.98;;;3.72;;
33022;SDS011;19390;51.460;5.710;2022-08-11T00:25:40;22.95;;;4.25;;
33022;SDS011;19390;51.460;5.710;2022-08-11T00:28:27;21.80;;;4.53;;
33022;SDS011;19390;51.460;5.710;2022-08-11T00:30:53;24.17;;;3.92;;
33022;SDS011;19390;51.460;5.710;2022-08-11T00:33:31;14.52;;;3.63;;
33022;SDS011;19390;51.460;5.710;2022-08-11T00:36:02;19.70;;;3.95;;
33022;SDS011;19390;51.460;5.710;2022-08-11T00:38:31;15.52;;;4.25;;
33022;SDS011;19390;51.460;5.710;2022-08-11T00:55:38;13.23;;;4.00;;
33022;SDS011;19390;51.460;5.710;2022-08-11T01:20:19;5.60;;;3.20;;
33022;SDS011;19390;51.460;5.710;2022-08-11T01:28:54;6.03;;;3.78;;
33022;SDS011;19390;51.460;5.710;2022-08-11T01:31:44;4.85;;;3.05;;
33022;SDS011;19390;51.460;5.710;2022-08-11T01:43:29;10.60;;;3.80;;
33022;SDS011;19390;51.460;5.710;2022-08-11T01:47:04;15.38;;;3.90;;
33022;SDS011;19390;51.460;5.710;2022-08-11T01:49:34;9.98;;;3.63;;
33022;SDS011;19390;51.460;5.710;2022-08-11T01:54:45;12.23;;;4.03;;
33022;SDS011;19390;51.460;5.710;2022-08-11T02:00:07;16.13;;;4.32;;
33022;SDS011;19390;51.460;5.710;2022-08-11T02:02:38;15.85;;;4.90;;
33022;SDS011;19390;51.460;5.710;2022-08-11T02:11:08;7.57;;;4.03;;
33022;SDS011;19390;51.460;5.710;2022-08-11T02:13:59;6.75;;;3.75;;
33022;SDS011;19390;51.460;5.710;2022-08-11T02:17:04;8.43;;;4.03;;
33022;SDS011;19390;51.460;5.710;2022-08-11T02:19:53;6.50;;;3.67;;
33022;SDS011;19390;51.460;5.710;2022-08-11T02:25:38;6.68;;;3.65;;
33022;SDS011;19390;51.460;5.710;2022-08-11T02:28:28;7.22;;;3.70;;
33022;SDS011;19390;51.460;5.710;2022-08-11T02:34:09;9.57;;;3.92;;
33022;SDS011;19390;51.460;5.710;2022-08-11T02:36:48;13.40;;;4.80;;
33022;SDS011;19390;51.460;5.710;2022-08-11T02:39:27;13.60;;;4.30;;
33022;SDS011;19390;51.460;5.710;2022-08-11T02:42:16;10.30;;;4.22;;
33022;SDS011;19390;51.460;5.710;2022-08-11T02:51:18;14.75;;;4.95;;
33022;SDS011;19390;51.460;5.710;2022-08-11T02:57:15;11.63;;;4.57;;
33022;SDS011;19390;51.460;5.710;2022-08-11T02:59:51;6.60;;;4.40;;
33022;SDS011;19390;51.460;5.710;2022-08-11T03:05:37;9.70;;;4.15;;
33022;SDS011;19390;51.460;5.710;2022-08-11T03:08:28;9.07;;;4.95;;
33022;SDS011;19390;51.460;5.710;2022-08-11T03:11:04;6.85;;;4.03;;
33022;SDS011;19390;51.460;5.710;2022-08-11T03:17:09;4.85;;;4.20;;
33022;SDS011;19390;51.460;5.710;2022-08-11T03:20:02;5.28;;;3.83;;
33022;SDS011;19390;51.460;5.710;2022-08-11T03:22:50;5.53;;;4.32;;
33022;SDS011;19390;51.460;5.710;2022-08-11T03:25:26;9.48;;;4.43;;
33022;SDS011;19390;51.460;5.710;2022-08-11T03:31:09;6.38;;;3.95;;
33022;SDS011;19390;51.460;5.710;2022-08-11T03:41:36;6.00;;;4.00;;
33022;SDS011;19390;51.460;5.710;2022-08-11T03:47:13;8.23;;;4.60;;
33022;SDS011;19390;51.460;5.710;2022-08-11T03:49:55;7.85;;;3.88;;
33022;SDS011;19390;51.460;5.710;2022-08-11T03:52:35;5.13;;;4.35;;
33022;SDS011;19390;51.460;5.710;2022-08-11T04:13:12;7.63;;;4.95;;
33022;SDS011;19390;51.460;5.710;2022-08-11T04:30:15;8.77;;;5.70;;
33022;SDS011;19390;51.460;5.710;2022-08-11T04:36:24;6.03;;;4.85;;
33022;SDS011;19390;51.460;5.710;2022-08-11T05:01:53;12.05;;;5.57;;
33022;SDS011;19390;51.460;5.710;2022-08-11T05:04:45;6.72;;;5.15;;
33022;SDS011;19390;51.460;5.710;2022-08-11T05:07:50;10.00;;;5.50;;
33022;SDS011;19390;51.460;5.710;2022-08-11T05:10:52;15.98;;;6.53;;
33022;SDS011;19390;51.460;5.710;2022-08-11T05:13:28;8.18;;;5.65;;
33022;SDS011;19390;51.460;5.710;2022-08-11T05:16:33;8.68;;;5.72;;
33022;SDS011;19390;51.460;5.710;2022-08-11T05:19:33;8.55;;;5.07;;
33022;SDS011;19390;51.460;5.710;2022-08-11T05:22:19;7.63;;;5.43;;
33022;SDS011;19390;51.460;5.710;2022-08-11T05:25:10;10.32;;;5.18;;
33022;SDS011;19390;51.460;5.710;2022-08-11T05:30:56;9.48;;;5.43;;
33022;SDS011;19390;51.460;5.710;2022-08-11T05:33:44;7.15;;;4.65;;
33022;SDS011;19390;51.460;5.710;2022-08-11T05:39:11;9.40;;;4.80;;
33022;SDS011;19390;51.460;5.710;2022-08-11T05:41:59;6.63;;;4.18;;
33022;SDS011;19390;51.460;5.710;2022-08-11T05:44:47;6.60;;;4.57;;
33022;SDS011;19390;51.460;5.710;2022-08-11T05:47:33;7.57;;;4.35;;
33022;SDS011;19390;51.460;5.710;2022-08-11T05:50:20;12.65;;;4.85;;
33022;SDS011;19390;51.460;5.710;2022-08-11T05:53:07;8.63;;;4.82;;
33022;SDS011;19390;51.460;5.710;2022-08-11T05:55:54;10.65;;;5.03;;
33022;SDS011;19390;51.460;5.710;2022-08-11T05:58:40;8.50;;;4.72;;
33022;SDS011;19390;51.460;5.710;2022-08-11T06:01:12;8.55;;;4.50;;
33022;SDS011;19390;51.460;5.710;2022-08-11T06:03:44;6.95;;;4.32;;
33022;SDS011;19390;51.460;5.710;2022-08-11T06:06:33;7.88;;;4.10;;
33022;SDS011;19390;51.460;5.710;2022-08-11T06:09:00;6.00;;;3.95;;
33022;SDS011;19390;51.460;5.710;2022-08-11T06:11:27;4.55;;;3.88;;
33022;SDS011;19390;51.460;5.710;2022-08-11T06:13:53;8.10;;;3.97;;
33022;SDS011;19390;51.460;5.710;2022-08-11T06:16:22;5.28;;;3.95;;
33022;SDS011;19390;51.460;5.710;2022-08-11T06:18:50;5.88;;;4.07;;
33022;SDS011;19390;51.460;5.710;2022-08-11T06:21:15;7.93;;;4.10;;
33022;SDS011;19390;51.460;5.710;2022-08-11T06:23:42;8.88;;;3.92;;
33022;SDS011;19390;51.460;5.710;2022-08-11T06:26:09;10.88;;;4.43;;
33022;SDS011;19390;51.460;5.710;2022-08-11T06:28:37;6.85;;;4.20;;
33022;SDS011;19390;51.460;5.710;2022-08-11T06:31:11;7.78;;;3.72;;
33022;SDS011;19390;51.460;5.710;2022-08-11T06:33:38;5.53;;;3.65;;
33022;SDS011;19390;51.460;5.710;2022-08-11T06:41:43;7.15;;;3.55;;
33022;SDS011;19390;51.460;5.710;2022-08-11T06:44:31;6.85;;;4.00;;
33022;SDS011;19390;51.460;5.710;2022-08-11T06:47:08;10.30;;;3.78;;
33022;SDS011;19390;51.460;5.710;2022-08-11T06:49:41;8.07;;;4.47;;
33022;SDS011;19390;51.460;5.710;2022-08-11T06:52:32;7.38;;;4.10;;
33022;SDS011;19390;51.460;5.710;2022-08-11T06:55:00;10.13;;;4.63;;
33022;SDS011;19390;51.460;5.710;2022-08-11T06:58:05;4.90;;;3.60;;
33022;SDS011;19390;51.460;5.710;2022-08-11T07:00:54;9.05;;;4.30;;
33022;SDS011;19390;51.460;5.710;2022-08-11T07:03:22;7.45;;;5.07;;
33022;SDS011;19390;51.460;5.710;2022-08-11T07:08:34;8.93;;;4.72;;
33022;SDS011;19390;51.460;5.710;2022-08-11T07:12:00;9.77;;;4.40;;
33022;SDS011;19390;51.460;5.710;2022-08-11T07:14:57;9.88;;;4.20;;
33022;SDS011;19390;51.460;5.710;2022-08-11T07:17:48;10.63;;;4.85;;
33022;SDS011;19390;51.460;5.710;2022-08-11T07:20:37;10.93;;;5.15;;
33022;SDS011;19390;51.460;5.710;2022-08-11T07:23:22;8.00;;;4.22;;
33022;SDS011;19390;51.460;5.710;2022-08-11T07:26:07;11.25;;;4.45;;
33022;SDS011;19390;51.460;5.710;2022-08-11T07:28:52;8.20;;;4.20;;
33022;SDS011;19390;51.460;5.710;2022-08-11T07:31:20;8.80;;;4.55;;
33022;SDS011;19390;51.460;5.710;2022-08-11T07:34:11;9.95;;;3.90;;
33022;SDS011;19390;51.460;5.710;2022-08-11T07:37:03;9.00;;;3.58;;
33022;SDS011;19390;51.460;5.710;2022-08-11T07:39:35;7.13;;;3.55;;
33022;SDS011;19390;51.460;5.710;2022-08-11T07:42:05;6.78;;;3.50;;
33022;SDS011;19390;51.460;5.710;2022-08-11T07:44:33;6.00;;;3.67;;
33022;SDS011;19390;51.460;5.710;2022-08-11T07:47:19;8.40;;;3.50;;
33022;SDS011;19390;51.460;5.710;2022-08-11T07:50:06;8.80;;;4.07;;
33022;SDS011;19390;51.460;5.710;2022-08-11T07:52:52;7.20;;;3.85;;
33022;SDS011;19390;51.460;5.710;2022-08-11T07:55:18;5.97;;;3.35;;
33022;SDS011;19390;51.460;5.710;2022-08-11T07:57:49;5.75;;;3.78;;
33022;SDS011;19390;51.460;5.710;2022-08-11T08:00:38;6.18;;;3.17;;
33022;SDS011;19390;51.460;5.710;2022-08-11T08:03:32;8.93;;;4.00;;
33022;SDS011;19390;51.460;5.710;2022-08-11T08:06:17;6.05;;;3.38;;
33022;SDS011;19390;51.460;5.710;2022-08-11T08:09:02;6.38;;;2.88;;
33022;SDS011;19390;51.460;5.710;2022-08-11T08:11:48;6.10;;;3.47;;
33022;SDS011;19390;51.460;5.710;2022-08-11T08:14:32;7.32;;;3.83;;
33022;SDS011;19390;51.460;5.710;2022-08-11T08:17:17;5.65;;;2.88;;
33022;SDS011;19390;51.460;5.710;2022-08-11T08:20:03;5.18;;;3.20;;
33022;SDS011;19390;51.460;5.710;2022-08-11T08:22:31;8.32;;;3.80;;
33022;SDS011;19390;51.460;5.710;2022-08-11T08:24:59;6.35;;;3.42;;
33022;SDS011;19390;51.460;5.710;2022-08-11T08:27:25;5.70;;;3.00;;
33022;SDS011;19390;51.460;5.710;2022-08-11T08:29:51;9.10;;;3.30;;
33022;SDS011;19390;51.460;5.710;2022-08-11T08:32:39;7.10;;;2.95;;
33022;SDS011;19390;51.460;5.710;2022-08-11T08:35:06;6.55;;;2.90;;
33022;SDS011;19390;51.460;5.710;2022-08-11T08:37:34;6.47;;;3.00;;
33022;SDS011;19390;51.460;5.710;2022-08-11T08:40:00;5.00;;;2.72;;
33022;SDS011;19390;51.460;5.710;2022-08-11T08:42:26;9.23;;;3.05;;
33022;SDS011;19390;51.460;5.710;2022-08-11T08:45:15;6.78;;;3.28;;
33022;SDS011;19390;51.460;5.710;2022-08-11T08:47:40;6.35;;;2.90;;
33022;SDS011;19390;51.460;5.710;2022-08-11T08:50:15;5.75;;;2.55;;
33022;SDS011;19390;51.460;5.710;2022-08-11T08:53:06;7.65;;;3.08;;
33022;SDS011;19390;51.460;5.710;2022-08-11T08:55:32;5.47;;;2.40;;
33022;SDS011;19390;51.460;5.710;2022-08-11T08:57:58;7.45;;;3.10;;
33022;SDS011;19390;51.460;5.710;2022-08-11T09:00:27;4.28;;;2.70;;
33022;SDS011;19390;51.460;5.710;2022-08-11T09:03:04;4.95;;;2.88;;
33022;SDS011;19390;51.460;5.710;2022-08-11T09:05:30;5.10;;;2.78;;
33022;SDS011;19390;51.460;5.710;2022-08-11T09:07:55;4.45;;;2.70;;
33022;SDS011;19390;51.460;5.710;2022-08-11T09:10:22;7.85;;;2.83;;
33022;SDS011;19390;51.460;5.710;2022-08-11T09:12:49;7.35;;;3.05;;
33022;SDS011;19390;51.460;5.710;2022-08-11T09:15:15;11.63;;;2.75;;
33022;SDS011;19390;51.460;5.710;2022-08-11T09:17:46;8.05;;;2.83;;
33022;SDS011;19390;51.460;5.710;2022-08-11T09:20:16;5.18;;;2.17;;
33022;SDS011;19390;51.460;5.710;2022-08-11T09:22:43;5.68;;;2.30;;
33022;SDS011;19390;51.460;5.710;2022-08-11T09:25:30;5.00;;;2.80;;
33022;SDS011;19390;51.460;5.710;2022-08-11T09:28:17;5.88;;;2.28;;
33022;SDS011;19390;51.460;5.710;2022-08-11T09:30:45;7.50;;;2.40;;
33022;SDS011;19390;51.460;5.710;2022-08-11T09:33:17;4.40;;;2.47;;
33022;SDS011;19390;51.460;5.710;2022-08-11T09:35:44;9.73;;;2.67;;
33022;SDS011;19390;51.460;5.710;2022-08-11T09:38:12;5.95;;;2.45;;
33022;SDS011;19390;51.460;5.710;2022-08-11T09:40:59;5.10;;;2.50;;
33022;SDS011;19390;51.460;5.710;2022-08-11T09:43:29;6.75;;;2.58;;
33022;SDS011;19390;51.460;5.710;2022-08-11T09:46:14;5.30;;;2.88;;
33022;SDS011;19390;51.460;5.710;2022-08-11T09:48:44;5.88;;;2.33;;
33022;SDS011;19390;51.460;5.710;2022-08-11T09:51:10;6.07;;;3.00;;
33022;SDS011;19390;51.460;5.710;2022-08-11T09:53:37;5.50;;;2.58;;
33022;SDS011;19390;51.460;5.710;2022-08-11T09:56:09;5.95;;;2.00;;
33022;SDS011;19390;51.460;5.710;2022-08-11T09:59:05;7.50;;;2.30;;
33022;SDS011;19390;51.460;5.710;2022-08-11T10:01:39;3.58;;;2.38;;
33022;SDS011;19390;51.460;5.710;2022-08-11T10:04:11;5.18;;;2.20;;
33022;SDS011;19390;51.460;5.710;2022-08-11T10:06:42;5.15;;;2.13;;
33022;SDS011;19390;51.460;5.710;2022-08-11T10:09:38;5.47;;;2.17;;
33022;SDS011;19390;51.460;5.710;2022-08-11T10:12:10;3.78;;;2.15;;
33022;SDS011;19390;51.460;5.710;2022-08-11T10:14:43;5.78;;;2.17;;
33022;SDS011;19390;51.460;5.710;2022-08-11T10:17:29;6.97;;;2.70;;
33022;SDS011;19390;51.460;5.710;2022-08-11T10:19:58;6.20;;;2.70;;
33022;SDS011;19390;51.460;5.710;2022-08-11T10:22:27;6.95;;;2.40;;
33022;SDS011;19390;51.460;5.710;2022-08-11T10:25:12;5.65;;;2.30;;
33022;SDS011;19390;51.460;5.710;2022-08-11T10:27:57;6.53;;;2.28;;
33022;SDS011;19390;51.460;5.710;2022-08-11T10:30:24;3.95;;;1.80;;
33022;SDS011;19390;51.460;5.710;2022-08-11T10:33:13;5.95;;;2.03;;
33022;SDS011;19390;51.460;5.710;2022-08-11T10:35:59;6.10;;;2.25;;
33022;SDS011;19390;51.460;5.710;2022-08-11T10:38:25;7.25;;;2.45;;
33022;SDS011;19390;51.460;5.710;2022-08-11T10:40:51;5.00;;;2.40;;
33022;SDS011;19390;51.460;5.710;2022-08-11T10:43:37;7.93;;;2.28;;
33022;SDS011;19390;51.460;5.710;2022-08-11T10:46:05;7.68;;;2.25;;
33022;SDS011;19390;51.460;5.710;2022-08-11T10:48:52;4.18;;;2.55;;
33022;SDS011;19390;51.460;5.710;2022-08-11T10:51:20;3.97;;;1.92;;
33022;SDS011;19390;51.460;5.710;2022-08-11T10:53:47;4.85;;;2.28;;
33022;SDS011;19390;51.460;5.710;2022-08-11T10:56:35;4.18;;;1.92;;
33022;SDS011;19390;51.460;5.710;2022-08-11T10:59:22;2.88;;;1.50;;
33022;SDS011;19390;51.460;5.710;2022-08-11T11:01:51;4.07;;;1.60;;
33022;SDS011;19390;51.460;5.710;2022-08-11T11:04:22;3.00;;;1.48;;
33022;SDS011;19390;51.460;5.710;2022-08-11T11:09:41;2.83;;;1.63;;
33022;SDS011;19390;51.460;5.710;2022-08-11T11:15:17;1.95;;;1.40;;
33022;SDS011;19390;51.460;5.710;2022-08-11T11:18:07;4.63;;;1.80;;
33022;SDS011;19390;51.460;5.710;2022-08-11T11:20:44;3.63;;;1.60;;
33022;SDS011;19390;51.460;5.710;2022-08-11T11:32:07;5.25;;;1.77;;
33022;SDS011;19390;51.460;5.710;2022-08-11T11:37:44;2.37;;;1.50;;
33022;SDS011;19390;51.460;5.710;2022-08-11T11:40:13;1.50;;;1.40;;
33022;SDS011;19390;51.460;5.710;2022-08-11T11:42:44;2.40;;;1.53;;
33022;SDS011;19390;51.460;5.710;2022-08-11T11:45:10;6.15;;;1.88;;
33022;SDS011;19390;51.460;5.710;2022-08-11T11:47:40;3.40;;;1.75;;
33022;SDS011;19390;51.460;5.710;2022-08-11T11:50:08;4.25;;;1.75;;
33022;SDS011;19390;51.460;5.710;2022-08-11T11:52:34;6.50;;;1.95;;
33022;SDS011;19390;51.460;5.710;2022-08-11T11:55:03;5.20;;;1.83;;
33022;SDS011;19390;51.460;5.710;2022-08-11T11:57:29;5.25;;;1.77;;
33022;SDS011;19390;51.460;5.710;2022-08-11T12:00:15;5.95;;;1.65;;
33022;SDS011;19390;51.460;5.710;2022-08-11T12:03:04;4.35;;;1.65;;
33022;SDS011;19390;51.460;5.710;2022-08-11T12:05:34;3.95;;;1.85;;
33022;SDS011;19390;51.460;5.710;2022-08-11T12:08:01;4.82;;;1.73;;
33022;SDS011;19390;51.460;5.710;2022-08-11T12:10:49;4.50;;;1.77;;
33022;SDS011;19390;51.460;5.710;2022-08-11T12:13:40;2.15;;;1.77;;
33022;SDS011;19390;51.460;5.710;2022-08-11T12:16:08;5.35;;;1.90;;
33022;SDS011;19390;51.460;5.710;2022-08-11T12:18:35;3.58;;;1.92;;
33022;SDS011;19390;51.460;5.710;2022-08-11T12:21:02;6.22;;;1.67;;
33022;SDS011;19390;51.460;5.710;2022-08-11T12:23:29;4.65;;;1.80;;
33022;SDS011;19390;51.460;5.710;2022-08-11T12:26:15;3.28;;;1.63;;
33022;SDS011;19390;51.460;5.710;2022-08-11T12:29:00;7.47;;;1.90;;
33022;SDS011;19390;51.460;5.710;2022-08-11T12:31:29;7.10;;;2.08;;
33022;SDS011;19390;51.460;5.710;2022-08-11T12:34:14;6.22;;;1.73;;
33022;SDS011;19390;51.460;5.710;2022-08-11T12:39:21;4.47;;;1.98;;
33022;SDS011;19390;51.460;5.710;2022-08-11T12:42:12;4.20;;;1.70;;
33022;SDS011;19390;51.460;5.710;2022-08-11T12:44:59;4.45;;;1.85;;
33022;SDS011;19390;51.460;5.710;2022-08-11T12:47:46;6.25;;;2.00;;
33022;SDS011;19390;51.460;5.710;2022-08-11T12:50:33;3.65;;;1.75;;
33022;SDS011;19390;51.460;5.710;2022-08-11T12:53:19;2.28;;;1.50;;
33022;SDS011;19390;51.460;5.710;2022-08-11T12:55:53;3.35;;;2.10;;
33022;SDS011;19390;51.460;5.710;2022-08-11T12:58:40;2.72;;;1.67;;
33022;SDS011;19390;51.460;5.710;2022-08-11T13:01:06;3.08;;;1.92;;
33022;SDS011;19390;51.460;5.710;2022-08-11T13:03:51;4.40;;;1.73;;
33022;SDS011;19390;51.460;5.710;2022-08-11T13:06:36;4.85;;;1.60;;
33022;SDS011;19390;51.460;5.710;2022-08-11T13:09:03;3.70;;;1.65;;
33022;SDS011;19390;51.460;5.710;2022-08-11T13:11:30;5.40;;;2.00;;
33022;SDS011;19390;51.460;5.710;2022-08-11T13:14:16;3.97;;;1.70;;
33022;SDS011;19390;51.460;5.710;2022-08-11T13:16:43;4.53;;;1.67;;
33022;SDS011;19390;51.460;5.710;2022-08-11T13:19:28;2.63;;;1.52;;
33022;SDS011;19390;51.460;5.710;2022-08-11T13:21:54;7.03;;;1.85;;
33022;SDS011;19390;51.460;5.710;2022-08-11T13:24:22;5.68;;;1.70;;
33022;SDS011;19390;51.460;5.710;2022-08-11T13:26:49;5.55;;;1.60;;
33022;SDS011;19390;51.460;5.710;2022-08-11T13:29:19;7.05;;;1.70;;
33022;SDS011;19390;51.460;5.710;2022-08-11T13:31:46;4.47;;;1.93;;
33022;SDS011;19390;51.460;5.710;2022-08-11T13:34:15;3.03;;;1.73;;
33022;SDS011;19390;51.460;5.710;2022-08-11T13:36:41;4.70;;;1.65;;
33022;SDS011;19390;51.460;5.710;2022-08-11T13:39:07;3.50;;;2.10;;
33022;SDS011;19390;51.460;5.710;2022-08-11T13:41:34;4.18;;;2.08;;
33022;SDS011;19390;51.460;5.710;2022-08-11T13:44:08;5.63;;;2.00;;
33022;SDS011;19390;51.460;5.710;2022-08-11T13:46:37;5.82;;;1.95;;
33022;SDS011;19390;51.460;5.710;2022-08-11T13:49:03;4.18;;;2.00;;
33022;SDS011;19390;51.460;5.710;2022-08-11T13:51:33;5.95;;;1.80;;
33022;SDS011;19390;51.460;5.710;2022-08-11T13:54:08;4.60;;;1.73;;
33022;SDS011;19390;51.460;5.710;2022-08-11T13:56:36;5.05;;;2.03;;
33022;SDS011;19390;51.460;5.710;2022-08-11T13:59:04;4.15;;;1.90;;
33022;SDS011;19390;51.460;5.710;2022-08-11T14:01:36;4.25;;;2.40;;
33022;SDS011;19390;51.460;5.710;2022-08-11T14:04:10;4.80;;;2.10;;
33022;SDS011;19390;51.460;5.710;2022-08-11T14:06:40;6.15;;;2.20;;
33022;SDS011;19390;51.460;5.710;2022-08-11T14:09:14;6.35;;;2.35;;
33022;SDS011;19390;51.460;5.710;2022-08-11T14:11:42;6.78;;;2.33;;
33022;SDS011;19390;51.460;5.710;2022-08-11T14:14:30;5.47;;;2.40;;
33022;SDS011;19390;51.460;5.710;2022-08-11T14:17:00;4.60;;;2.15;;
33022;SDS011;19390;51.460;5.710;2022-08-11T14:19:34;3.22;;;2.47;;
33022;SDS011;19390;51.460;5.710;2022-08-11T14:22:04;3.45;;;2.00;;
33022;SDS011;19390;51.460;5.710;2022-08-11T14:24:36;3.85;;;2.35;;
33022;SDS011;19390;51.460;5.710;2022-08-11T14:27:08;5.57;;;2.60;;
33022;SDS011;19390;51.460;5.710;2022-08-11T14:29:36;4.78;;;2.80;;
33022;SDS011;19390;51.460;5.710;2022-08-11T14:32:05;4.03;;;2.47;;
33022;SDS011;19390;51.460;5.710;2022-08-11T14:34:33;4.80;;;2.35;;
33022;SDS011;19390;51.460;5.710;2022-08-11T14:37:06;6.85;;;2.42;;
33022;SDS011;19390;51.460;5.710;2022-08-11T14:39:38;9.32;;;2.78;;
33022;SDS011;19390;51.460;5.710;2022-08-11T14:42:07;3.85;;;2.20;;
33022;SDS011;19390;51.460;5.710;2022-08-11T14:44:55;4.72;;;2.65;;
33022;SDS011;19390;51.460;5.710;2022-08-11T14:47:41;4.32;;;2.15;;
33022;SDS011;19390;51.460;5.710;2022-08-11T14:50:10;4.72;;;2.63;;
33022;SDS011;19390;51.460;5.710;2022-08-11T14:52:47;6.15;;;2.65;;
33022;SDS011;19390;51.460;5.710;2022-08-11T14:55:19;4.45;;;2.17;;
33022;SDS011;19390;51.460;5.710;2022-08-11T14:58:04;3.45;;;2.13;;
33022;SDS011;19390;51.460;5.710;2022-08-11T15:00:33;6.95;;;2.25;;
33022;SDS011;19390;51.460;5.710;2022-08-11T15:02:59;5.15;;;2.03;;
33022;SDS011;19390;51.460;5.710;2022-08-11T15:05:45;6.13;;;2.42;;
33022;SDS011;19390;51.460;5.710;2022-08-11T15:08:13;7.70;;;2.45;;
33022;SDS011;19390;51.460;5.710;2022-08-11T15:10:40;5.00;;;2.13;;
33022;SDS011;19390;51.460;5.710;2022-08-11T15:13:06;5.47;;;2.20;;
33022;SDS011;19390;51.460;5.710;2022-08-11T15:15:35;4.40;;;1.85;;
33022;SDS011;19390;51.460;5.710;2022-08-11T15:18:21;6.10;;;2.20;;
33022;SDS011;19390;51.460;5.710;2022-08-11T15:20:48;3.67;;;2.05;;
33022;SDS011;19390;51.460;5.710;2022-08-11T15:23:33;3.85;;;2.30;;
33022;SDS011;19390;51.460;5.710;2022-08-11T15:26:22;3.17;;;1.98;;
33022;SDS011;19390;51.460;5.710;2022-08-11T15:29:13;5.90;;;2.05;;
33022;SDS011;19390;51.460;5.710;2022-08-11T15:32:00;4.30;;;2.13;;
33022;SDS011;19390;51.460;5.710;2022-08-11T15:34:45;5.60;;;2.45;;
33022;SDS011;19390;51.460;5.710;2022-08-11T15:37:33;3.92;;;1.83;;
33022;SDS011;19390;51.460;5.710;2022-08-11T15:40:04;6.10;;;2.20;;
33022;SDS011;19390;51.460;5.710;2022-08-11T15:43:06;12.13;;;4.97;;
33022;SDS011;19390;51.460;5.710;2022-08-11T15:45:54;15.57;;;4.50;;
33022;SDS011;19390;51.460;5.710;2022-08-11T15:48:28;5.88;;;2.60;;
33022;SDS011;19390;51.460;5.710;2022-08-11T15:51:02;2.33;;;2.10;;
33022;SDS011;19390;51.460;5.710;2022-08-11T15:53:51;3.33;;;1.50;;
33022;SDS011;19390;51.460;5.710;2022-08-11T15:56:20;2.35;;;1.85;;
33022;SDS011;19390;51.460;5.710;2022-08-11T15:58:48;4.13;;;1.95;;
33022;SDS011;19390;51.460;5.710;2022-08-11T16:01:35;4.35;;;1.73;;
33022;SDS011;19390;51.460;5.710;2022-08-11T16:04:23;5.05;;;1.92;;
33022;SDS011;19390;51.460;5.710;2022-08-11T16:07:10;3.50;;;1.85;;
33022;SDS011;19390;51.460;5.710;2022-08-11T16:09:38;3.78;;;1.42;;
33022;SDS011;19390;51.460;5.710;2022-08-11T16:12:21;5.43;;;1.80;;
33022;SDS011;19390;51.460;5.710;2022-08-11T16:14:50;5.07;;;1.85;;
33022;SDS011;19390;51.460;5.710;2022-08-11T16:17:38;8.27;;;1.90;;
33022;SDS011;19390;51.460;5.710;2022-08-11T16:20:08;3.63;;;1.70;;
33022;SDS011;19390;51.460;5.710;2022-08-11T16:22:35;4.18;;;2.00;;
33022;SDS011;19390;51.460;5.710;2022-08-11T16:25:07;5.22;;;1.60;;
33022;SDS011;19390;51.460;5.710;2022-08-11T16:27:35;5.07;;;1.67;;
33022;SDS011;19390;51.460;5.710;2022-08-11T16:30:04;2.90;;;1.50;;
33022;SDS011;19390;51.460;5.710;2022-08-11T16:32:31;1.63;;;1.52;;
33022;SDS011;19390;51.460;5.710;2022-08-11T16:35:05;3.38;;;1.55;;
33022;SDS011;19390;51.460;5.710;2022-08-11T16:37:52;3.22;;;1.77;;
33022;SDS011;19390;51.460;5.710;2022-08-11T16:40:39;4.78;;;2.10;;
33022;SDS011;19390;51.460;5.710;2022-08-11T16:43:07;3.03;;;1.98;;
33022;SDS011;19390;51.460;5.710;2022-08-11T16:45:54;3.40;;;1.80;;
33022;SDS011;19390;51.460;5.710;2022-08-11T16:48:40;5.10;;;2.40;;
33022;SDS011;19390;51.460;5.710;2022-08-11T16:51:07;2.13;;;1.90;;
33022;SDS011;19390;51.460;5.710;2022-08-11T16:53:36;5.10;;;1.90;;
33022;SDS011;19390;51.460;5.710;2022-08-11T16:56:03;3.97;;;1.77;;
33022;SDS011;19390;51.460;5.710;2022-08-11T16:58:31;6.38;;;2.05;;
33022;SDS011;19390;51.460;5.710;2022-08-11T17:01:20;4.68;;;1.75;;
33022;SDS011;19390;51.460;5.710;2022-08-11T17:03:50;5.70;;;1.85;;
33022;SDS011;19390;51.460;5.710;2022-08-11T17:06:40;6.18;;;1.70;;
33022;SDS011;19390;51.460;5.710;2022-08-11T17:09:27;8.98;;;2.22;;
33022;SDS011;19390;51.460;5.710;2022-08-11T17:12:15;5.20;;;2.03;;
33022;SDS011;19390;51.460;5.710;2022-08-11T17:15:05;6.63;;;2.10;;
33022;SDS011;19390;51.460;5.710;2022-08-11T17:17:54;7.20;;;3.08;;
33022;SDS011;19390;51.460;5.710;2022-08-11T17:20:22;4.22;;;3.03;;
33022;SDS011;19390;51.460;5.710;2022-08-11T17:22:49;2.20;;;1.67;;
33022;SDS011;19390;51.460;5.710;2022-08-11T17:25:36;3.40;;;1.80;;
33022;SDS011;19390;51.460;5.710;2022-08-11T17:28:02;2.38;;;1.67;;
33022;SDS011;19390;51.460;5.710;2022-08-11T17:30:29;4.20;;;2.30;;
33022;SDS011;19390;51.460;5.710;2022-08-11T17:33:15;4.45;;;1.80;;
33022;SDS011;19390;51.460;5.710;2022-08-11T17:36:01;10.30;;;1.85;;
33022;SDS011;19390;51.460;5.710;2022-08-11T17:38:27;2.75;;;1.73;;
33022;SDS011;19390;51.460;5.710;2022-08-11T17:40:55;3.85;;;2.10;;
33022;SDS011;19390;51.460;5.710;2022-08-11T17:43:42;6.45;;;1.60;;
33022;SDS011;19390;51.460;5.710;2022-08-11T17:46:28;9.23;;;2.13;;
33022;SDS011;19390;51.460;5.710;2022-08-11T17:49:13;5.60;;;2.17;;
33022;SDS011;19390;51.460;5.710;2022-08-11T17:51:42;2.90;;;1.90;;
33022;SDS011;19390;51.460;5.710;2022-08-11T17:54:27;5.28;;;1.92;;
33022;SDS011;19390;51.460;5.710;2022-08-11T17:57:12;8.02;;;2.05;;
33022;SDS011;19390;51.460;5.710;2022-08-11T17:59:58;3.50;;;2.13;;
33022;SDS011;19390;51.460;5.710;2022-08-11T18:02:36;2.75;;;2.00;;
33022;SDS011;19390;51.460;5.710;2022-08-11T18:05:23;5.18;;;2.20;;
33022;SDS011;19390;51.460;5.710;2022-08-11T18:07:52;7.03;;;2.40;;
33022;SDS011;19390;51.460;5.710;2022-08-11T18:10:39;4.95;;;2.00;;
33022;SDS011;19390;51.460;5.710;2022-08-11T18:13:25;5.68;;;2.35;;
33022;SDS011;19390;51.460;5.710;2022-08-11T18:16:12;5.18;;;2.20;;
33022;SDS011;19390;51.460;5.710;2022-08-11T18:18:57;3.80;;;2.10;;
33022;SDS011;19390;51.460;5.710;2022-08-11T18:21:42;6.00;;;2.22;;
33022;SDS011;19390;51.460;5.710;2022-08-11T18:24:29;4.82;;;2.30;;
33022;SDS011;19390;51.460;5.710;2022-08-11T18:27:16;3.75;;;1.90;;
33022;SDS011;19390;51.460;5.710;2022-08-11T18:30:03;5.72;;;2.00;;
33022;SDS011;19390;51.460;5.710;2022-08-11T18:32:48;4.40;;;2.30;;
33022;SDS011;19390;51.460;5.710;2022-08-11T18:35:37;3.00;;;2.00;;
33022;SDS011;19390;51.460;5.710;2022-08-11T18:38:25;4.75;;;2.00;;
33022;SDS011;19390;51.460;5.710;2022-08-11T18:41:12;7.60;;;2.03;;
33022;SDS011;19390;51.460;5.710;2022-08-11T18:43:59;4.65;;;2.38;;
33022;SDS011;19390;51.460;5.710;2022-08-11T18:46:48;6.43;;;2.10;;
33022;SDS011;19390;51.460;5.710;2022-08-11T18:49:35;6.40;;;2.20;;
33022;SDS011;19390;51.460;5.710;2022-08-11T18:52:22;6.30;;;2.42;;
33022;SDS011;19390;51.460;5.710;2022-08-11T18:55:10;3.90;;;1.98;;
33022;SDS011;19390;51.460;5.710;2022-08-11T18:58:00;5.47;;;2.30;;
33022;SDS011;19390;51.460;5.710;2022-08-11T19:00:47;3.80;;;2.30;;